Bismarck, ND (58501)

3:11 PM CST on December 03, 2016 (GMT -0600)
Sunrise | | Change Station

Elev 1788 ft 46.85 °N, 100.72 °W | Updated 38 seconds ago

Mostly Cloudy
Mostly Cloudy
32.6 °F
Feels Like 33 °F
N
0.0
Wind Variable Wind from SSW

Today
High -- | Low -- °F
--% Chance of Precip.
Yesterday
High -- | Low -- °F
Precip. -- in
Pressure 29.89 in
Visibility 10.0 miles
Clouds Mostly Cloudy 1200 ft
Windchill 33 °F
Dew Point 27 °F
Humidity 80%
Rainfall 0.00 in
Snow Depth Not available.
8:10 AM 4:55 PM
Waxing Crescent, 17% visible
SPECI KBIS 032059Z 13006KT 10SM BKN012 M02/M04 A2989 RMK AO2 T10221044
Pressure 29.89 in
Visibility 10.0 miles
Clouds Mostly Cloudy 1200 ft
Windchill 33 °F
Dew Point 27 °F
Humidity 80%
Rainfall 0.00 in
Snow Depth Not available.
8:10 AM 4:55 PM
Waxing Crescent, 17% visible
SPECI KBIS 032059Z 13006KT 10SM BKN012 M02/M04 A2989 RMK AO2 T10221044

10-Day Weather Forecast

Almanac

Astronomy

Dec. 03, 2016 Rise Set
Actual Time
Civil Twilight
Nautical Twilight
Astronomical Twilight
Moon
Length of Visible Light
Length of Day
Tomorrow will be .
, % of the Moon is Illuminated

Today's Extremes

State Highs State Lows

Community

WunderPhotos

Upload Photos

1,955,492 photos uploaded!

WunderBlog® & News

Nearby

Air Quality

  Air Quality AQ Index Pollutant
Not available.

Snow Depth

Station Depth Elevation

Earthquake Activity

City Distance Mag. Time & Date
Minimum magnitude displayed is 2.5.

Coastal Water Temperatures

Place Temperature

Stations

Nearby Weather Stations

Station Location Temp. Windchill Dew Point Humidity Wind Precip. Elev Updated Type
                   

Watches & Warnings

There are currently no watches in effect.